Time;durP1;ratioP1;P1;durP2;ratioP2;P2;SDS_P1;SDS_P2;PMS_P1;PMS_P2;Temp;Humidity;BMP_temperature;BMP_pressure;BME280_temperature;BME280_humidity;BME280_pressure;Samples;Min_cycle;Max_cycle;Signal;HPM_P1;HPM_P2
2023/10/23 00:01:38;;;;;;;10.00;6.80;;;6.90;99.90;;;;;;4948361;28;20034;-68
2023/10/23 00:04:04;;;;;;;11.52;6.70;;;6.90;99.90;;;;;;4964650;28;22700;-68
2023/10/23 00:06:30;;;;;;;11.02;6.80;;;6.90;99.90;;;;;;4946392;28;20275;-68
2023/10/23 00:08:56;;;;;;;10.27;6.80;;;6.80;99.90;;;;;;4953580;28;20319;-68
2023/10/23 00:11:29;;;;;;;10.43;6.88;;;6.90;99.90;;;;;;4942118;28;20046;-68
2023/10/23 00:13:55;;;;;;;11.77;7.05;;;6.90;99.90;;;;;;4967818;28;20166;-69
2023/10/23 00:16:21;;;;;;;10.55;7.25;;;6.90;99.90;;;;;;4956159;28;20034;-68
2023/10/23 00:18:53;;;;;;;15.10;7.55;;;6.90;99.90;;;;;;4961445;28;20085;-68
2023/10/23 00:21:19;;;;;;;10.95;7.13;;;6.90;99.90;;;;;;4944815;28;20070;-68
2023/10/23 00:23:45;;;;;;;10.43;7.47;;;6.80;99.90;;;;;;4963938;28;20042;-69
2023/10/23 00:26:10;;;;;;;14.85;7.38;;;6.80;99.90;;;;;;4962742;28;20041;-68
2023/10/23 00:28:36;;;;;;;10.90;6.93;;;6.80;99.90;;;;;;4970915;28;20035;-68
2023/10/23 00:31:01;;;;;;;13.00;7.90;;;6.80;99.90;;;;;;4982796;28;20046;-69
2023/10/23 00:33:27;;;;;;;11.68;7.68;;;6.80;99.90;;;;;;4964018;28;20038;-68
2023/10/23 00:35:53;;;;;;;9.57;6.68;;;6.80;99.90;;;;;;4970992;28;20527;-68
2023/10/23 00:38:19;;;;;;;11.65;6.43;;;6.80;99.90;;;;;;4972074;28;20034;-68
2023/10/23 00:40:46;;;;;;;15.40;7.18;;;6.80;99.90;;;;;;4971086;28;20042;-68
2023/10/23 00:43:20;;;;;;;10.98;7.60;;;6.70;99.90;;;;;;4963713;28;20042;-68
2023/10/23 00:45:59;;;;;;;10.35;6.65;;;6.70;99.90;;;;;;4982080;28;20046;-68
2023/10/23 00:48:26;;;;;;;10.98;6.97;;;6.70;99.90;;;;;;4958927;28;20360;-68
2023/10/23 00:50:56;;;;;;;10.52;6.82;;;6.70;99.90;;;;;;4978301;28;20034;-68
2023/10/23 00:53:22;;;;;;;;;;;6.70;99.90;;;;;;4948452;28;20180;-68
2023/10/23 00:55:50;;;;;;;11.88;7.10;;;6.70;99.90;;;;;;4957492;28;19929;-69
2023/10/23 00:58:16;;;;;;;11.77;7.18;;;6.70;99.90;;;;;;4970320;28;20038;-68
2023/10/23 01:00:44;;;;;;;12.30;7.28;;;6.60;99.90;;;;;;4961254;28;20874;-68
2023/10/23 01:03:10;;;;;;;11.38;7.05;;;6.60;99.90;;;;;;4963712;28;20038;-68
2023/10/23 01:05:36;;;;;;;11.48;7.95;;;6.60;99.90;;;;;;4962288;28;20101;-68
2023/10/23 01:08:03;;;;;;;11.77;7.82;;;6.60;99.90;;;;;;4961885;28;20520;-68
2023/10/23 01:10:28;;;;;;;9.18;7.20;;;6.60;99.90;;;;;;4941713;28;20109;-68
2023/10/23 01:12:54;;;;;;;13.30;8.25;;;6.60;99.90;;;;;;4974385;28;20491;-68
2023/10/23 01:15:20;;;;;;;11.75;7.90;;;6.60;99.90;;;;;;4965466;28;20401;-69
2023/10/23 01:17:46;;;;;;;13.52;8.20;;;6.60;99.90;;;;;;4966377;28;20042;-69
2023/10/23 01:20:14;;;;;;;13.02;7.68;;;6.60;99.90;;;;;;4965621;28;20145;-68
2023/10/23 01:22:39;;;;;;;12.20;7.95;;;6.60;99.90;;;;;;4962792;28;20657;-68
2023/10/23 01:25:15;;;;;;;9.95;7.03;;;6.60;99.90;;;;;;4962928;28;20137;-69
2023/10/23 01:27:42;;;;;;;11.02;6.65;;;6.60;99.90;;;;;;4958845;28;20133;-68
2023/10/23 01:30:09;;;;;;;12.07;7.32;;;6.50;99.90;;;;;;4959837;28;20381;-69
2023/10/23 01:32:35;;;;;;;9.90;7.50;;;6.50;99.90;;;;;;4963777;28;20053;-68
2023/10/23 01:35:01;;;;;;;11.93;7.32;;;6.50;99.90;;;;;;4968231;28;20042;-68
2023/10/23 01:37:26;;;;;;;14.05;7.75;;;6.50;99.90;;;;;;4964154;28;20231;-68
2023/10/23 01:39:52;;;;;;;11.27;7.60;;;6.50;99.90;;;;;;4976076;28;20337;-68
2023/10/23 01:42:20;;;;;;;11.40;7.22;;;6.50;99.90;;;;;;4957270;28;20058;-68
2023/10/23 01:44:46;;;;;;;11.20;7.15;;;6.50;99.90;;;;;;4967012;28;20129;-69
2023/10/23 01:47:12;;;;;;;10.60;7.15;;;6.50;99.90;;;;;;4959849;28;20142;-68
2023/10/23 01:49:37;;;;;;;12.80;7.90;;;6.50;99.90;;;;;;4965947;28;20137;-68
2023/10/23 01:52:03;;;;;;;10.52;7.22;;;6.50;99.90;;;;;;4965947;28;20117;-69
2023/10/23 01:54:28;;;;;;;9.68;7.50;;;6.40;99.90;;;;;;4965911;28;20390;-68
2023/10/23 01:56:54;;;;;;;15.18;7.70;;;6.40;99.90;;;;;;4971082;28;20467;-69
2023/10/23 01:59:20;;;;;;;10.80;7.22;;;6.40;99.90;;;;;;4968999;28;20282;-68
2023/10/23 02:01:45;;;;;;;13.90;7.82;;;6.40;99.90;;;;;;4947876;28;20043;-69
2023/10/23 02:04:11;;;;;;;12.27;7.75;;;6.40;99.90;;;;;;4962043;28;20561;-68
2023/10/23 02:06:37;;;;;;;9.65;6.80;;;6.30;99.90;;;;;;4987103;28;20130;-68
2023/10/23 02:09:02;;;;;;;8.18;6.43;;;6.30;99.90;;;;;;4962826;28;20049;-68
2023/10/23 02:11:28;;;;;;;9.68;6.45;;;6.20;99.90;;;;;;4966300;28;20084;-69
2023/10/23 02:13:54;;;;;;;8.35;6.10;;;6.20;99.90;;;;;;4958451;28;20057;-68
2023/10/23 02:16:19;;;;;;;9.25;6.05;;;6.10;99.90;;;;;;4960586;28;20042;-68
2023/10/23 02:18:45;;;;;;;10.63;6.50;;;6.10;99.90;;;;;;4965482;28;20031;-68
2023/10/23 02:21:11;;;;;;;11.75;6.40;;;6.10;99.90;;;;;;4967084;28;20409;-68
2023/10/23 02:23:36;;;;;;;10.07;6.63;;;6.00;99.90;;;;;;4957522;28;20464;-68
2023/10/23 02:26:02;;;;;;;12.35;6.88;;;6.00;99.90;;;;;;4974223;28;20144;-68
2023/10/23 02:28:28;;;;;;;8.35;6.93;;;6.00;99.90;;;;;;4964611;28;20407;-68
2023/10/23 02:30:54;;;;;;;12.07;6.40;;;6.00;99.90;;;;;;4961720;28;20486;-68
2023/10/23 02:33:20;;;;;;;11.20;7.32;;;6.00;99.90;;;;;;4961549;28;20085;-68
2023/10/23 02:35:45;;;;;;;8.90;6.72;;;6.00;99.90;;;;;;4963605;28;20042;-68
2023/10/23 02:38:11;;;;;;;12.38;7.50;;;6.00;99.90;;;;;;4977935;28;20246;-68
2023/10/23 02:40:37;;;;;;;11.30;7.15;;;6.00;99.90;;;;;;4945110;28;20060;-68
2023/10/23 02:43:03;;;;;;;11.43;7.97;;;6.00;99.90;;;;;;4960735;28;20435;-69
2023/10/23 02:45:29;;;;;;;11.20;7.20;;;6.00;99.90;;;;;;4962532;28;20370;-69
2023/10/23 02:47:54;;;;;;;9.45;7.10;;;6.00;99.90;;;;;;4954785;28;20034;-68
2023/10/23 02:50:21;;;;;;;11.55;7.90;;;6.00;99.90;;;;;;4960923;28;20038;-68
2023/10/23 02:52:47;;;;;;;11.77;7.20;;;6.00;99.90;;;;;;4986342;28;20042;-69
2023/10/23 02:55:12;;;;;;;14.50;7.72;;;6.00;99.90;;;;;;4971125;28;20462;-69
2023/10/23 02:57:38;;;;;;;14.73;8.15;;;6.00;99.90;;;;;;4961680;28;20104;-68
2023/10/23 03:00:05;;;;;;;10.52;7.00;;;6.00;99.90;;;;;;4983741;28;20106;-69
2023/10/23 03:02:31;;;;;;;9.10;6.88;;;6.00;99.90;;;;;;4980614;28;20105;-68
2023/10/23 03:04:57;;;;;;;10.10;7.05;;;6.00;99.90;;;;;;4968248;28;20399;-68
2023/10/23 03:07:23;;;;;;;9.32;6.22;;;5.90;99.90;;;;;;4968640;28;20053;-69
2023/10/23 03:09:49;;;;;;;10.88;6.50;;;5.90;99.90;;;;;;4968720;28;20109;-68
2023/10/23 03:12:15;;;;;;;8.88;5.95;;;5.80;99.90;;;;;;4965500;28;20034;-68
2023/10/23 03:14:40;;;;;;;7.55;5.32;;;5.70;99.90;;;;;;4964963;28;20030;-68
2023/10/23 03:17:07;;;;;;;8.55;6.00;;;5.60;99.90;;;;;;4967239;28;20189;-69
2023/10/23 03:19:32;;;;;;;9.57;6.13;;;5.60;99.90;;;;;;4971878;28;20103;-69
2023/10/23 03:21:58;;;;;;;13.23;6.97;;;5.60;99.90;;;;;;4985223;28;20039;-68
2023/10/23 03:24:23;;;;;;;9.00;6.20;;;5.60;99.90;;;;;;4962839;28;20053;-69
2023/10/23 03:26:50;;;;;;;9.75;6.75;;;5.60;99.90;;;;;;4964655;28;20451;-68
2023/10/23 03:29:17;;;;;;;10.45;6.25;;;5.60;99.90;;;;;;4983537;28;20129;-69
2023/10/23 03:31:42;;;;;;;10.10;6.63;;;5.60;99.90;;;;;;4953768;28;20137;-69
2023/10/23 03:34:08;;;;;;;8.52;6.20;;;5.60;99.90;;;;;;4952595;28;20514;-69
2023/10/23 03:36:34;;;;;;;12.00;6.50;;;5.60;99.90;;;;;;4964947;28;20038;-69
2023/10/23 03:38:59;;;;;;;10.13;6.82;;;5.60;99.90;;;;;;4966981;28;20099;-69
2023/10/23 03:41:25;;;;;;;11.55;7.07;;;5.60;99.90;;;;;;4961444;28;20034;-69
2023/10/23 03:43:51;;;;;;;10.95;6.50;;;5.60;99.90;;;;;;4971398;28;20089;-69
2023/10/23 03:46:16;;;;;;;13.25;7.72;;;5.60;99.90;;;;;;4966158;28;20034;-68
2023/10/23 03:48:42;;;;;;;12.25;7.10;;;5.60;99.90;;;;;;4944976;28;20541;-69
2023/10/23 03:51:08;;;;;;;11.52;7.10;;;5.60;99.90;;;;;;4959419;28;20404;-69
2023/10/23 03:53:33;;;;;;;14.32;7.47;;;5.60;99.90;;;;;;4968483;28;20093;-69
2023/10/23 03:55:59;;;;;;;12.65;7.85;;;5.60;99.90;;;;;;4953180;28;20046;-68
2023/10/23 03:58:24;;;;;;;14.18;7.97;;;5.60;99.90;;;;;;4966119;28;20116;-69
2023/10/23 04:00:54;;;;;;;12.00;7.00;;;5.60;99.90;;;;;;4967676;28;20521;-69
2023/10/23 04:03:19;;;;;;;12.47;7.57;;;5.50;99.90;;;;;;4967591;28;20044;-68
2023/10/23 04:05:45;;;;;;;11.80;7.25;;;5.50;99.90;;;;;;4971143;28;20121;-68
2023/10/23 04:08:10;;;;;;;13.40;7.82;;;5.60;99.90;;;;;;4954618;28;20141;-69
2023/10/23 04:10:36;;;;;;;11.75;7.80;;;5.60;99.90;;;;;;4985560;28;20301;-69
2023/10/23 04:13:02;;;;;;;15.57;7.70;;;5.60;99.90;;;;;;4961944;28;20130;-69
2023/10/23 04:15:28;;;;;;;12.60;7.53;;;5.60;99.90;;;;;;4976300;28;20054;-70
2023/10/23 04:17:54;;;;;;;14.00;9.18;;;5.60;99.90;;;;;;4963321;28;20035;-69
2023/10/23 04:20:19;;;;;;;16.75;9.35;;;5.60;99.90;;;;;;4967010;28;20061;-69
2023/10/23 04:22:45;;;;;;;13.70;9.00;;;5.60;99.90;;;;;;4978264;28;20132;-69
2023/10/23 04:25:11;;;;;;;16.52;9.45;;;5.60;99.90;;;;;;4961361;28;20456;-69
2023/10/23 04:27:36;;;;;;;15.55;10.00;;;5.70;99.90;;;;;;4956391;28;20445;-69
2023/10/23 04:30:06;;;;;;;16.55;9.93;;;5.70;99.90;;;;;;4967522;28;20442;-69
2023/10/23 04:32:31;;;;;;;16.98;10.52;;;5.70;99.90;;;;;;4962480;28;20066;-69
2023/10/23 04:34:57;;;;;;;16.05;10.15;;;5.70;99.90;;;;;;4963200;28;20489;-69
2023/10/23 04:37:22;;;;;;;14.85;9.95;;;5.70;99.90;;;;;;4954023;28;20038;-69
2023/10/23 04:39:48;;;;;;;17.65;10.60;;;5.70;99.90;;;;;;4963919;28;20125;-69
2023/10/23 04:42:14;;;;;;;17.60;10.90;;;5.70;99.90;;;;;;4965934;28;20057;-68
2023/10/23 04:44:39;;;;;;;16.83;11.15;;;5.70;99.90;;;;;;4968838;28;20030;-70
2023/10/23 04:47:05;;;;;;;16.83;10.43;;;5.70;99.90;;;;;;4958566;28;20097;-70
2023/10/23 04:49:30;;;;;;;16.17;10.50;;;5.70;99.90;;;;;;4951431;28;20101;-69
2023/10/23 04:51:56;;;;;;;16.33;10.60;;;5.70;99.90;;;;;;4960957;28;20046;-69
2023/10/23 04:54:22;;;;;;;14.93;9.60;;;5.60;99.90;;;;;;4943035;28;20129;-69
2023/10/23 04:56:47;;;;;;;13.73;9.63;;;5.60;99.90;;;;;;4961633;28;20153;-69
2023/10/23 04:59:13;;;;;;;13.85;9.20;;;5.50;99.90;;;;;;4964289;28;20428;-69
2023/10/23 05:01:38;;;;;;;15.40;9.88;;;5.50;99.90;;;;;;4976516;28;20057;-69
2023/10/23 05:04:04;;;;;;;15.05;9.45;;;5.50;99.90;;;;;;4962524;28;20050;-69
2023/10/23 05:06:30;;;;;;;15.95;10.10;;;5.50;99.90;;;;;;4957186;28;20046;-69
2023/10/23 05:08:55;;;;;;;21.27;9.93;;;5.50;99.90;;;;;;4954565;28;20155;-69
2023/10/23 05:11:24;;;;;;;15.10;9.95;;;5.50;99.90;;;;;;4963722;28;20501;-70
2023/10/23 05:13:50;;;;;;;14.85;9.32;;;5.50;99.90;;;;;;4980191;28;20566;-69
2023/10/23 05:16:16;;;;;;;14.40;9.88;;;5.50;99.90;;;;;;4959751;28;20061;-69
2023/10/23 05:18:42;;;;;;;16.73;9.50;;;5.60;99.90;;;;;;4961493;28;20038;-69
2023/10/23 05:21:09;;;;;;;13.98;8.85;;;5.60;99.90;;;;;;4976096;28;20196;-69
2023/10/23 05:23:35;;;;;;;12.65;8.20;;;5.60;99.90;;;;;;4973723;28;20038;-69
2023/10/23 05:26:01;;;;;;;14.98;9.80;;;5.60;99.90;;;;;;4959932;28;20042;-69
2023/10/23 05:28:27;;;;;;;18.10;9.82;;;5.60;99.90;;;;;;4959889;28;20038;-69
2023/10/23 05:30:53;;;;;;;13.43;8.65;;;5.50;99.90;;;;;;4963270;28;20045;-69
2023/10/23 05:33:19;;;;;;;12.63;8.43;;;5.40;99.90;;;;;;4978363;28;20112;-70
2023/10/23 05:35:45;;;;;;;10.00;6.90;;;5.30;99.90;;;;;;4961567;28;20101;-69
2023/10/23 05:38:11;;;;;;;9.02;7.05;;;5.30;99.90;;;;;;4960278;28;20402;-69
2023/10/23 05:40:37;;;;;;;11.13;6.93;;;5.30;99.90;;;;;;4969648;28;20038;-69
2023/10/23 05:43:02;;;;;;;11.65;7.35;;;5.30;99.90;;;;;;4967262;28;20042;-69
2023/10/23 05:45:28;;;;;;;12.82;7.95;;;5.20;99.90;;;;;;4967464;28;20081;-70
2023/10/23 05:47:53;;;;;;;10.82;6.90;;;5.10;99.90;;;;;;4963718;28;20038;-70
2023/10/23 05:50:19;;;;;;;12.07;7.13;;;5.00;99.90;;;;;;4980398;28;20153;-69
2023/10/23 05:52:44;;;;;;;11.98;7.72;;;4.90;99.90;;;;;;4966411;28;20046;-69
2023/10/23 05:55:10;;;;;;;14.63;8.00;;;4.80;99.90;;;;;;4971220;28;20045;-69
2023/10/23 05:57:36;;;;;;;10.43;6.90;;;4.80;99.90;;;;;;4967836;28;20056;-69
2023/10/23 06:00:03;;;;;;;11.55;8.18;;;4.70;99.90;;;;;;4969660;28;20122;-70
2023/10/23 06:02:30;;;;;;;12.43;7.55;;;4.70;99.90;;;;;;4961327;28;20042;-70
2023/10/23 06:04:56;;;;;;;15.55;7.55;;;4.70;99.90;;;;;;4967912;28;20057;-70
2023/10/23 06:07:21;;;;;;;10.57;7.35;;;4.60;99.90;;;;;;4968994;28;20031;-70
2023/10/23 06:09:47;;;;;;;10.25;7.55;;;4.70;99.90;;;;;;4970687;28;20046;-70
2023/10/23 06:12:14;;;;;;;11.65;7.72;;;4.60;99.90;;;;;;4966333;28;20034;-70
2023/10/23 06:14:40;;;;;;;10.75;7.38;;;4.60;99.90;;;;;;4968982;28;20043;-71
2023/10/23 06:17:06;;;;;;;14.05;7.47;;;4.70;99.90;;;;;;4983095;28;20050;-70
2023/10/23 06:19:32;;;;;;;14.27;8.23;;;4.70;99.90;;;;;;4968173;28;20046;-70
2023/10/23 06:21:58;;;;;;;12.80;8.52;;;4.70;99.90;;;;;;4969441;28;20304;-70
2023/10/23 06:24:23;;;;;;;10.70;7.03;;;4.70;99.90;;;;;;4971108;28;20074;-71
2023/10/23 06:26:49;;;;;;;12.10;7.03;;;4.70;99.90;;;;;;4969365;28;20038;-71
2023/10/23 06:29:14;;;;;;;9.13;6.47;;;4.60;99.90;;;;;;4974358;28;20064;-71
2023/10/23 06:31:40;;;;;;;9.85;6.85;;;4.50;99.90;;;;;;4969118;28;20070;-70
2023/10/23 06:34:05;;;;;;;12.95;7.57;;;4.50;99.90;;;;;;4973156;28;20458;-70
2023/10/23 06:36:31;;;;;;;10.20;7.38;;;4.50;99.90;;;;;;4972494;28;20038;-70
2023/10/23 06:38:57;;;;;;;12.38;7.30;;;4.50;99.90;;;;;;4967446;28;20640;-70
2023/10/23 06:41:22;;;;;;;12.25;6.93;;;4.50;99.90;;;;;;4977897;28;20378;-70
2023/10/23 06:43:48;;;;;;;13.60;7.40;;;4.50;99.90;;;;;;4972882;28;20081;-70
2023/10/23 06:46:14;;;;;;;11.57;7.32;;;4.50;99.90;;;;;;4970298;28;20053;-70
2023/10/23 06:48:46;;;;;;;14.25;8.00;;;4.50;99.90;;;;;;4967901;28;20049;-70
2023/10/23 06:51:13;;;;;;;12.98;7.32;;;4.40;99.90;;;;;;4969584;28;20042;-69
2023/10/23 06:53:39;;;;;;;10.38;7.30;;;4.50;99.90;;;;;;4972291;28;20477;-70
2023/10/23 06:56:07;;;;;;;11.98;7.38;;;4.50;99.90;;;;;;4972765;28;20521;-70
2023/10/23 06:58:33;;;;;;;13.77;8.18;;;4.50;99.90;;;;;;4975590;28;20046;-71
2023/10/23 07:01:06;;;;;;;11.52;7.57;;;4.60;99.90;;;;;;4975138;28;20757;-70
2023/10/23 07:03:32;;;;;;;12.32;7.45;;;4.70;99.90;;;;;;4980516;28;20110;-70
2023/10/23 07:05:57;;;;;;;13.13;7.45;;;4.70;99.90;;;;;;4970343;28;20125;-71
2023/10/23 07:08:23;;;;;;;13.50;7.68;;;4.70;99.90;;;;;;4972361;28;20047;-70
2023/10/23 07:10:48;;;;;;;12.63;7.22;;;4.70;99.90;;;;;;4973282;28;20463;-70
2023/10/23 07:13:15;;;;;;;10.43;7.45;;;4.80;99.90;;;;;;4969295;28;20451;-70
2023/10/23 07:15:40;;;;;;;13.10;7.85;;;4.80;99.90;;;;;;4970431;28;20130;-70
2023/10/23 07:18:06;;;;;;;12.85;7.47;;;4.80;99.90;;;;;;4969311;28;20185;-70
2023/10/23 07:20:31;;;;;;;20.80;8.35;;;4.80;99.90;;;;;;4954901;28;20467;-70
2023/10/23 07:22:57;;;;;;;13.93;8.07;;;4.90;99.90;;;;;;4967469;28;20047;-70
2023/10/23 07:25:23;;;;;;;10.90;7.00;;;5.00;99.90;;;;;;4968323;28;20048;-70
2023/10/23 07:27:49;;;;;;;13.50;7.13;;;5.00;99.90;;;;;;4947200;28;20086;-70
2023/10/23 07:30:15;;;;;;;11.40;7.68;;;5.10;99.90;;;;;;4982630;28;20085;-69
2023/10/23 07:32:40;;;;;;;10.70;7.47;;;5.20;99.90;;;;;;4961009;28;20475;-71
2023/10/23 07:35:08;;;;;;;11.57;7.70;;;5.30;99.90;;;;;;4952866;28;20051;-70
2023/10/23 07:37:34;;;;;;;12.10;8.20;;;5.40;99.90;;;;;;4954940;28;20039;-70
2023/10/23 07:40:06;;;;;;;13.60;9.05;;;5.50;99.90;;;;;;4985289;28;20486;-69
2023/10/23 07:42:32;;;;;;;11.93;8.30;;;5.60;99.90;;;;;;4967588;28;20038;-69
2023/10/23 07:44:58;;;;;;;12.15;8.80;;;5.70;99.90;;;;;;4950066;28;20594;-68
2023/10/23 07:47:24;;;;;;;12.65;8.57;;;5.90;99.90;;;;;;4944773;28;20062;-69
2023/10/23 07:49:50;;;;;;;15.30;9.20;;;6.00;99.90;;;;;;4970180;28;20050;-69
2023/10/23 07:52:15;;;;;;;15.05;10.02;;;6.10;99.90;;;;;;4969623;28;20066;-69
2023/10/23 07:54:41;;;;;;;16.02;11.27;;;6.30;99.90;;;;;;4969046;28;20168;-70
2023/10/23 07:57:06;;;;;;;19.38;12.13;;;6.30;99.90;;;;;;4948802;28;20051;-70
2023/10/23 07:59:32;;;;;;;21.95;12.70;;;6.50;99.90;;;;;;4964701;28;20074;-68
2023/10/23 08:01:58;;;;;;;27.98;14.93;;;6.70;99.90;;;;;;4964181;28;20039;-70
2023/10/23 08:04:24;;;;;;;25.23;14.98;;;6.90;99.90;;;;;;4971023;28;20054;-69
2023/10/23 08:06:49;;;;;;;32.20;17.20;;;7.10;99.90;;;;;;4965149;28;20364;-70
2023/10/23 08:09:15;;;;;;;35.33;18.05;;;7.30;99.90;;;;;;4966324;28;20065;-70
2023/10/23 08:11:40;;;;;;;33.33;18.33;;;7.50;99.90;;;;;;4950080;28;20049;-70
2023/10/23 08:14:06;;;;;;;31.02;18.08;;;7.70;99.90;;;;;;4968528;28;20053;-69
2023/10/23 08:16:31;;;;;;;33.72;18.30;;;7.80;99.90;;;;;;4967203;28;20075;-69
2023/10/23 08:18:57;;;;;;;34.63;19.08;;;8.00;99.90;;;;;;4952490;28;20034;-69
2023/10/23 08:21:25;;;;;;;34.08;18.83;;;8.20;99.90;;;;;;4963556;28;20476;-68
2023/10/23 08:23:56;;;;;;;36.83;18.73;;;8.30;99.90;;;;;;4980057;28;20097;-69
2023/10/23 08:26:22;;;;;;;34.35;17.83;;;8.40;99.90;;;;;;4965930;28;20051;-70
2023/10/23 08:28:48;;;;;;;28.45;16.75;;;8.50;99.90;;;;;;4961040;28;20050;-69
2023/10/23 08:31:14;;;;;;;31.98;18.05;;;8.80;99.90;;;;;;4966299;28;20118;-68
2023/10/23 08:33:40;;;;;;;32.00;16.98;;;8.80;99.90;;;;;;4950432;28;20141;-68
2023/10/23 08:36:05;;;;;;;32.42;17.30;;;8.90;99.90;;;;;;4952475;28;20038;-69
2023/10/23 08:38:31;;;;;;;32.17;17.20;;;9.10;99.90;;;;;;4963948;28;20818;-68
2023/10/23 08:40:56;;;;;;;27.48;17.05;;;9.20;99.90;;;;;;4967310;28;20042;-68
2023/10/23 08:43:23;;;;;;;27.90;16.20;;;9.30;99.90;;;;;;4958541;28;20051;-68
2023/10/23 08:45:52;;;;;;;26.60;14.32;;;9.40;99.90;;;;;;4968651;28;20141;-68
2023/10/23 08:48:17;;;;;;;27.40;14.73;;;9.40;99.90;;;;;;4955280;28;20450;-68
2023/10/23 08:50:43;;;;;;;25.10;15.18;;;9.50;99.90;;;;;;4951066;28;20070;-68
2023/10/23 08:53:11;;;;;;;21.40;13.20;;;9.50;99.90;;;;;;4967481;28;20459;-68
2023/10/23 08:55:37;;;;;;;20.42;12.15;;;9.60;99.90;;;;;;4968160;28;20141;-69
2023/10/23 08:58:05;;;;;;;24.20;14.32;;;9.70;99.90;;;;;;4965421;28;20097;-68
2023/10/23 09:00:30;;;;;;;23.08;14.27;;;9.80;99.90;;;;;;4946903;28;20455;-68
2023/10/23 09:02:58;;;;;;;21.25;13.43;;;9.90;99.90;;;;;;4963928;28;20042;-68
2023/10/23 09:05:24;;;;;;;20.77;13.85;;;9.90;99.90;;;;;;4949923;28;20363;-67
2023/10/23 09:07:50;;;;;;;23.25;13.95;;;9.90;99.90;;;;;;4962097;28;20043;-69
2023/10/23 09:10:16;;;;;;;21.92;13.05;;;10.00;99.90;;;;;;4959419;28;20371;-69
2023/10/23 09:12:41;;;;;;;18.95;12.75;;;9.80;99.90;;;;;;4965304;28;20126;-68
2023/10/23 09:15:20;;;;;;;19.70;12.73;;;9.80;99.90;;;;;;4966591;28;20478;-68
2023/10/23 09:17:46;;;;;;;18.73;11.85;;;9.90;99.90;;;;;;4944623;28;21697;-68
2023/10/23 09:20:26;;;;;;;19.10;12.60;;;9.90;99.90;;;;;;4965906;28;20094;-67
2023/10/23 09:22:52;;;;;;;18.52;12.55;;;10.10;99.90;;;;;;4967742;28;20047;-68
2023/10/23 09:25:20;;;;;;;19.08;12.88;;;10.20;99.90;;;;;;4983072;28;20122;-69
2023/10/23 09:27:46;;;;;;;19.67;12.63;;;10.10;99.90;;;;;;4969040;28;20050;-69
2023/10/23 09:30:13;;;;;;;18.48;11.43;;;10.20;99.90;;;;;;4967372;28;20047;-68
2023/10/23 09:32:40;;;;;;;18.83;12.60;;;10.20;99.90;;;;;;4957885;28;20048;-68
2023/10/23 09:35:10;;;;;;;22.10;13.05;;;10.30;99.90;;;;;;4966165;28;20151;-68
2023/10/23 09:37:36;;;;;;;20.38;12.25;;;10.20;99.90;;;;;;4962025;28;20054;-68
2023/10/23 09:40:08;;;;;;;20.80;12.15;;;10.30;99.90;;;;;;4949453;28;20592;-68
2023/10/23 09:42:34;;;;;;;22.02;12.98;;;10.30;99.90;;;;;;4966062;28;20459;-68
2023/10/23 09:45:04;;;;;;;18.83;12.43;;;10.30;99.90;;;;;;4951316;28;20043;-69
2023/10/23 09:47:30;;;;;;;;;;;10.30;99.90;;;;;;4975231;28;20093;-69
2023/10/23 09:49:55;;;;;;;30.00;14.30;;;10.40;99.90;;;;;;4968003;28;19921;-69
2023/10/23 09:52:24;;;;;;;24.95;13.82;;;10.30;99.90;;;;;;4965851;28;20057;-69
2023/10/23 09:54:50;;;;;;;59.60;13.90;;;10.40;99.90;;;;;;4983837;28;20051;-69
2023/10/23 09:57:19;;;;;;;100.70;15.23;;;10.30;99.90;;;;;;4980073;28;20049;-68
2023/10/23 09:59:52;;;;;;;20.55;13.23;;;10.30;99.90;;;;;;4947413;28;20039;-70
2023/10/23 10:02:18;;;;;;;20.45;12.40;;;10.40;99.90;;;;;;4960454;28;20129;-69
2023/10/23 10:05:00;;;;;;;54.05;13.73;;;10.30;99.90;;;;;;4962480;28;20509;-68
2023/10/23 10:07:52;;;;;;;62.22;15.65;;;10.50;99.90;;;;;;4965530;28;20474;-69
2023/10/23 10:10:19;;;;;;;30.90;12.23;;;10.40;99.90;;;;;;4960470;28;20523;-69
2023/10/23 10:12:46;;;;;;;20.27;12.23;;;10.30;99.90;;;;;;4950722;28;20069;-69
2023/10/23 10:15:13;;;;;;;30.90;14.00;;;10.40;99.90;;;;;;4964308;28;20106;-69
2023/10/23 10:17:39;;;;;;;27.90;13.85;;;10.50;99.90;;;;;;4960963;28;20039;-68
2023/10/23 10:20:08;;;;;;;26.75;14.63;;;10.50;99.90;;;;;;4968678;28;20050;-68
2023/10/23 10:22:36;;;;;;;25.38;13.68;;;10.50;99.90;;;;;;4954961;28;20039;-69
2023/10/23 10:25:04;;;;;;;24.45;13.15;;;10.60;99.90;;;;;;4967311;28;20522;-69
2023/10/23 10:27:30;;;;;;;21.55;13.35;;;10.50;99.90;;;;;;4960678;28;20078;-69
2023/10/23 10:29:59;;;;;;;37.42;12.95;;;10.70;99.90;;;;;;4966781;28;20093;-67
2023/10/23 10:32:25;;;;;;;26.95;12.18;;;10.70;99.90;;;;;;4958036;28;20050;-69
2023/10/23 10:34:52;;;;;;;21.95;11.60;;;10.60;99.90;;;;;;4964459;28;20133;-69
2023/10/23 10:37:22;;;;;;;21.42;10.90;;;10.60;99.90;;;;;;4965435;28;20440;-67
2023/10/23 10:39:50;;;;;;;19.75;11.07;;;10.50;99.90;;;;;;4964446;28;20400;-69
2023/10/23 10:42:28;;;;;;;19.15;11.38;;;10.50;99.90;;;;;;4961883;28;20047;-70
2023/10/23 10:44:59;;;;;;;18.67;10.50;;;10.50;99.90;;;;;;4958669;28;20035;-69
2023/10/23 10:47:39;;;;;;;18.52;10.55;;;10.60;99.90;;;;;;4954951;28;20039;-69
2023/10/23 10:50:05;;;;;;;;;;;10.60;99.90;;;;;;4959386;28;20606;-69
2023/10/23 10:52:35;;;;;;;15.90;9.77;;;10.60;99.90;;;;;;4964633;28;19926;-70
2023/10/23 10:55:05;;;;;;;17.10;10.95;;;10.70;99.90;;;;;;4941158;28;20054;-68
2023/10/23 10:57:31;;;;;;;16.92;10.93;;;10.60;99.90;;;;;;4962259;28;20039;-68
2023/10/23 11:00:00;;;;;;;18.13;10.88;;;10.60;99.90;;;;;;4961680;28;20502;-69
2023/10/23 11:02:26;;;;;;;16.10;10.40;;;10.60;99.90;;;;;;4961253;28;20038;-68
2023/10/23 11:04:52;;;;;;;19.65;11.20;;;10.60;99.90;;;;;;4968200;28;20169;-68
2023/10/23 11:07:26;;;;;;;17.45;10.57;;;10.60;99.90;;;;;;4969917;28;20101;-69
2023/10/23 11:09:53;;;;;;;15.75;10.13;;;10.50;99.90;;;;;;4967654;28;20042;-68
2023/10/23 11:12:19;;;;;;;16.60;9.75;;;10.50;99.90;;;;;;4953716;28;20039;-67
2023/10/23 11:14:47;;;;;;;16.60;10.30;;;10.60;99.90;;;;;;4970792;28;20078;-69
2023/10/23 11:17:13;;;;;;;16.05;9.68;;;10.60;99.90;;;;;;4947915;28;20719;-69
2023/10/23 11:19:41;;;;;;;15.63;9.95;;;10.70;99.90;;;;;;4971046;28;20050;-69
2023/10/23 11:22:16;;;;;;;15.93;10.02;;;10.80;99.90;;;;;;4970381;28;20129;-70
2023/10/23 11:24:43;;;;;;;15.23;9.88;;;10.60;99.90;;;;;;4973872;28;20030;-69
2023/10/23 11:27:09;;;;;;;17.63;10.77;;;10.60;99.90;;;;;;4957025;28;20088;-67
2023/10/23 11:29:47;;;;;;;15.77;9.95;;;10.70;99.90;;;;;;4975812;28;20049;-69
2023/10/23 11:32:17;;;;;;;15.57;10.07;;;10.80;99.90;;;;;;4965765;28;20046;-70
2023/10/23 11:34:45;;;;;;;15.63;10.13;;;10.80;99.90;;;;;;4954852;28;20505;-69
2023/10/23 11:37:11;;;;;;;17.92;10.10;;;10.60;99.90;;;;;;4953596;28;20133;-69
2023/10/23 11:39:38;;;;;;;17.70;10.50;;;10.70;99.90;;;;;;4972482;28;20516;-68
2023/10/23 11:42:05;;;;;;;16.33;10.30;;;10.80;99.90;;;;;;4960721;28;20045;-68
2023/10/23 11:44:35;;;;;;;17.45;10.02;;;10.70;99.90;;;;;;4974875;28;20396;-67
2023/10/23 11:47:07;;;;;;;16.38;10.20;;;10.60;99.90;;;;;;4965209;28;20049;-68
2023/10/23 11:49:33;;;;;;;18.20;10.68;;;10.70;99.90;;;;;;4984121;28;20042;-68
2023/10/23 11:52:00;;;;;;;16.05;10.60;;;10.70;99.90;;;;;;4972589;28;20148;-68
2023/10/23 11:54:27;;;;;;;19.38;11.20;;;10.70;99.90;;;;;;4972930;28;20038;-67
2023/10/23 11:56:55;;;;;;;19.25;11.20;;;10.70;99.90;;;;;;4949097;28;20144;-68
2023/10/23 11:59:21;;;;;;;19.45;11.35;;;10.80;99.90;;;;;;4970197;28;20215;-68
2023/10/23 12:01:49;;;;;;;18.00;10.85;;;10.70;99.90;;;;;;4969093;28;20607;-68
2023/10/23 12:04:15;;;;;;;17.00;11.43;;;10.70;99.90;;;;;;4986550;28;20054;-67
2023/10/23 12:06:42;;;;;;;18.92;10.98;;;10.80;99.90;;;;;;4964614;28;20050;-68
2023/10/23 12:09:09;;;;;;;18.55;11.15;;;10.70;99.90;;;;;;4967001;28;20044;-69
2023/10/23 12:11:36;;;;;;;23.13;12.23;;;10.70;99.90;;;;;;4985027;28;20161;-68
2023/10/23 12:14:03;;;;;;;18.73;11.93;;;10.70;99.90;;;;;;4953627;28;20517;-67
2023/10/23 12:16:32;;;;;;;18.60;11.10;;;10.70;99.90;;;;;;4969967;28;20034;-69
2023/10/23 12:18:59;;;;;;;21.90;11.95;;;10.70;99.90;;;;;;4950223;28;20045;-68
2023/10/23 12:21:25;;;;;;;22.15;11.55;;;10.60;99.90;;;;;;4953577;28;20050;-67
2023/10/23 12:23:51;;;;;;;25.95;12.35;;;10.50;99.90;;;;;;4972325;28;20060;-68
2023/10/23 12:26:18;;;;;;;24.40;12.60;;;10.50;99.90;;;;;;4970382;28;20034;-68
2023/10/23 12:28:44;;;;;;;24.17;12.35;;;10.60;99.90;;;;;;4967299;28;20061;-67
2023/10/23 12:31:10;;;;;;;28.15;12.82;;;10.70;99.90;;;;;;4971289;28;20053;-68
2023/10/23 12:33:35;;;;;;;29.88;13.82;;;10.60;99.90;;;;;;4967625;28;20590;-69
2023/10/23 12:36:03;;;;;;;29.27;13.55;;;10.70;99.90;;;;;;4968020;28;20108;-68
2023/10/23 12:38:29;;;;;;;29.27;13.57;;;10.70;99.90;;;;;;4974360;28;20038;-68
2023/10/23 12:40:55;;;;;;;28.80;13.48;;;10.60;99.90;;;;;;4951082;28;20069;-68